TimeEST,TemperatureF,Dew PointF,Humidity,Sea Level PressureIn,VisibilityMPH,Wind Direction,Wind SpeedMPH,Gust SpeedMPH,PrecipitationIn,Events,Conditions,WindDirDegrees,DateUTC
12:05 AM,73.4,69.8,88,30.05,10.0,SE,16.1,-,N/A,,Overcast,130,2013-12-29 05:05:00
12:22 AM,73.4,71.6,94,30.05,10.0,SE,12.7,-,N/A,,Overcast,130,2013-12-29 05:22:00
12:53 AM,73.9,71.1,91,30.04,9.0,SE,13.8,-,N/A,,Overcast,130,2013-12-29 05:53:00
1:06 AM,73.4,71.6,94,30.04,10.0,SE,15.0,-,N/A,,Overcast,130,2013-12-29 06:06:00
1:53 AM,73.9,71.1,91,30.02,5.0,SE,12.7,-,0.00,Rain,Light Rain,130,2013-12-29 06:53:00
2:12 AM,73.4,71.6,94,30.03,2.5,SSE,13.8,-,0.03,Rain,Rain,160,2013-12-29 07:12:00
2:21 AM,73.4,71.6,94,30.02,1.8,SSE,13.8,-,0.19,Rain,Rain,150,2013-12-29 07:21:00
2:27 AM,73.4,71.6,94,30.01,3.0,SSE,10.4,-,0.22,Rain,Rain,160,2013-12-29 07:27:00
2:37 AM,73.4,71.6,94,30.00,2.5,SE,12.7,-,0.24,Rain,Heavy Rain,140,2013-12-29 07:37:00
2:46 AM,71.6,71.6,100,30.01,3.0,SSE,10.4,-,0.32,Rain,Light Rain,150,2013-12-29 07:46:00
2:53 AM,72.0,72.0,100,30.00,10.0,SSE,11.5,-,0.32,,Overcast,160,2013-12-29 07:53:00
3:53 AM,72.0,72.0,100,29.99,10.0,South,5.8,-,N/A,,Clear,170,2013-12-29 08:53:00
4:53 AM,72.0,72.0,100,29.98,10.0,South,5.8,-,N/A,,Clear,180,2013-12-29 09:53:00
5:53 AM,72.0,72.0,100,29.99,10.0,SSE,8.1,-,N/A,,Clear,160,2013-12-29 10:53:00
6:53 AM,73.0,72.0,96,30.00,10.0,South,9.2,-,N/A,,Clear,180,2013-12-29 11:53:00
7:53 AM,73.0,72.0,96,30.01,10.0,South,9.2,-,N/A,,Scattered Clouds,170,2013-12-29 12:53:00
8:53 AM,73.0,72.0,96,30.02,10.0,South,8.1,-,N/A,,Clear,180,2013-12-29 13:53:00
9:53 AM,73.9,73.0,97,30.02,10.0,South,9.2,-,N/A,,Clear,180,2013-12-29 14:53:00
10:53 AM,75.0,73.0,94,30.00,10.0,South,9.2,-,N/A,,Mostly Cloudy,170,2013-12-29 15:53:00
11:53 AM,75.9,73.9,94,30.01,10.0,South,12.7,-,0.00,,Scattered Clouds,190,2013-12-29 16:53:00
12:39 PM,78.8,73.4,83,29.97,10.0,South,13.8,23.0,0.00,Rain,Light Rain,190,2013-12-29 17:39:00
12:53 PM,80.1,73.9,81,29.96,10.0,South,18.4,24.2,0.00,,Mostly Cloudy,180,2013-12-29 17:53:00
1:53 PM,80.1,73.0,79,29.92,10.0,SSW,15.0,24.2,0.00,Rain,Light Rain,200,2013-12-29 18:53:00
2:53 PM,82.0,72.0,71,29.91,10.0,SSW,12.7,-,0.00,,Mostly Cloudy,210,2013-12-29 19:53:00
3:53 PM,81.0,72.0,74,29.92,10.0,SSW,9.2,19.6,N/A,,Mostly Cloudy,200,2013-12-29 20:53:00
4:53 PM,80.1,71.1,74,29.92,10.0,SSW,19.6,-,N/A,,Partly Cloudy,200,2013-12-29 21:53:00
5:53 PM,78.1,70.0,76,29.94,10.0,SW,11.5,-,N/A,,Mostly Cloudy,220,2013-12-29 22:53:00
6:53 PM,75.9,70.0,82,29.96,10.0,SW,8.1,-,N/A,,Partly Cloudy,220,2013-12-29 23:53:00
7:53 PM,73.9,70.0,87,29.97,10.0,SW,4.6,-,N/A,,Scattered Clouds,220,2013-12-30 00:53:00
8:53 PM,73.9,70.0,87,29.98,10.0,SW,5.8,-,N/A,,Overcast,220,2013-12-30 01:53:00
9:53 PM,73.9,70.0,87,29.99,10.0,SW,9.2,-,N/A,,Overcast,230,2013-12-30 02:53:00
10:34 PM,73.4,69.8,88,30.00,10.0,SW,8.1,-,N/A,,Overcast,230,2013-12-30 03:34:00
10:53 PM,73.0,70.0,90,30.00,10.0,SW,6.9,-,N/A,,Overcast,230,2013-12-30 03:53:00
11:35 PM,73.4,71.6,94,30.00,10.0,SW,4.6,-,N/A,,Overcast,220,2013-12-30 04:35:00
11:53 PM,72.0,71.1,97,30.01,10.0,SW,4.6,-,N/A,,Overcast,230,2013-12-30 04:53:00